createdAt,value
2023-02-14T00:00:46.232Z,85
2023-02-14T00:04:11.423Z,84
2023-02-14T00:07:36.583Z,85
2023-02-14T00:11:01.754Z,85
2023-02-14T00:14:26.962Z,85
2023-02-14T00:17:52.086Z,85
2023-02-14T00:21:17.261Z,84
2023-02-14T00:24:42.410Z,85
2023-02-14T00:28:07.582Z,86
2023-02-14T00:31:32.900Z,86
2023-02-14T00:34:57.933Z,86
2023-02-14T00:38:23.066Z,85
2023-02-14T00:41:48.226Z,86
2023-02-14T00:45:13.420Z,87
2023-02-14T00:48:38.606Z,87
2023-02-14T00:52:03.755Z,88
2023-02-14T00:55:28.938Z,87
2023-02-14T00:58:54.097Z,87
2023-02-14T01:02:19.271Z,87
2023-02-14T01:05:44.462Z,86
2023-02-14T01:09:09.613Z,84
2023-02-14T01:12:34.779Z,84
2023-02-14T01:15:59.941Z,84
2023-02-14T01:19:26.365Z,85
2023-02-14T01:22:51.529Z,83
2023-02-14T01:26:16.704Z,82
2023-02-14T01:29:41.911Z,81
2023-02-14T01:33:07.046Z,81
2023-02-14T01:36:32.249Z,82
2023-02-14T01:39:57.438Z,83
2023-02-14T01:43:22.551Z,82
2023-02-14T01:46:47.733Z,82
2023-02-14T01:50:12.955Z,83
2023-02-14T01:53:38.124Z,85
2023-02-14T01:57:03.347Z,86
2023-02-14T02:00:28.484Z,88
2023-02-14T02:03:53.661Z,87
2023-02-14T02:07:18.854Z,85
2023-02-14T02:10:44.026Z,85
2023-02-14T02:14:09.234Z,85
2023-02-14T02:17:34.361Z,87
2023-02-14T02:20:59.706Z,88
2023-02-14T02:24:24.692Z,88
2023-02-14T02:27:49.872Z,83
2023-02-14T02:31:16.034Z,86
2023-02-14T02:34:41.049Z,86
2023-02-14T02:38:06.216Z,85
2023-02-14T02:41:31.373Z,86
2023-02-14T02:44:56.591Z,86
2023-02-14T02:48:21.793Z,87
2023-02-14T02:51:46.954Z,85
2023-02-14T02:55:12.152Z,84
2023-02-14T02:58:37.344Z,85
2023-02-14T03:02:02.531Z,87
2023-02-14T03:05:27.756Z,87
2023-02-14T03:08:52.878Z,89
2023-02-14T03:12:18.044Z,87
2023-02-14T03:15:43.259Z,86
2023-02-14T03:19:08.411Z,85
2023-02-14T03:22:33.615Z,85
2023-02-14T03:25:58.766Z,87
2023-02-14T03:29:23.942Z,86
2023-02-14T03:32:49.136Z,85
2023-02-14T03:36:14.324Z,84
2023-02-14T03:39:39.525Z,85
2023-02-14T03:43:04.658Z,88
2023-02-14T03:46:29.857Z,87
2023-02-14T03:49:54.985Z,87
2023-02-14T03:53:20.140Z,86
2023-02-14T03:56:45.343Z,85
2023-02-14T04:00:10.753Z,87
2023-02-14T04:03:35.953Z,88
2023-02-14T04:07:01.102Z,86
2023-02-14T04:10:26.295Z,87
2023-02-14T04:13:51.498Z,86
2023-02-14T04:17:16.645Z,84
2023-02-14T04:20:41.791Z,84
2023-02-14T04:24:06.970Z,85
2023-02-14T04:27:32.146Z,87
2023-02-14T04:30:57.603Z,86
2023-02-14T04:34:22.504Z,85
2023-02-14T04:37:47.660Z,84
2023-02-14T04:41:12.841Z,86
2023-02-14T04:44:38.005Z,86
2023-02-14T04:48:03.201Z,88
2023-02-14T04:51:28.350Z,88
2023-02-14T04:54:53.517Z,88
2023-02-14T04:58:18.706Z,86
2023-02-14T05:01:43.939Z,84
2023-02-14T05:05:09.078Z,85
2023-02-14T05:08:34.215Z,85
2023-02-14T05:11:59.384Z,87
2023-02-14T05:15:24.568Z,88
2023-02-14T05:18:49.747Z,87
2023-02-14T05:22:16.857Z,84
2023-02-14T05:25:40.074Z,84
2023-02-14T05:29:05.248Z,85
2023-02-14T05:32:30.429Z,85
2023-02-14T05:35:55.592Z,85
2023-02-14T05:39:20.822Z,86
2023-02-14T05:42:38.718Z,87
2023-02-14T05:46:03.923Z,84
2023-02-14T05:49:29.073Z,85
2023-02-14T05:52:54.239Z,85
2023-02-14T05:56:19.438Z,85
2023-02-14T05:59:44.589Z,84
2023-02-14T06:03:09.799Z,85
2023-02-14T06:06:36.641Z,84
2023-02-14T06:10:00.249Z,84
2023-02-14T06:13:25.584Z,85
2023-02-14T06:16:50.851Z,85
2023-02-14T06:20:15.943Z,87
2023-02-14T06:23:41.103Z,88
2023-02-14T06:27:06.307Z,89
2023-02-14T06:30:31.664Z,89
2023-02-14T06:33:56.788Z,87
2023-02-14T06:37:21.983Z,87
2023-02-14T06:40:47.151Z,88
2023-02-14T06:44:12.404Z,88
2023-02-14T06:47:37.658Z,89
2023-02-14T06:51:03.036Z,89
2023-02-14T06:54:28.133Z,88
2023-02-14T06:57:53.363Z,88
2023-02-14T07:01:18.646Z,88
2023-02-14T07:04:43.796Z,87
2023-02-14T07:08:09.939Z,89
2023-02-14T07:11:37.758Z,88
2023-02-14T07:15:03.009Z,89
2023-02-14T07:18:28.222Z,89
2023-02-14T07:21:53.503Z,88
2023-02-14T07:25:18.655Z,89
2023-02-14T07:28:45.175Z,88
2023-02-14T07:32:09.296Z,89
2023-02-14T07:35:34.307Z,90
2023-02-14T07:38:59.562Z,90
2023-02-14T07:42:28.012Z,89
2023-02-14T07:45:53.838Z,90
2023-02-14T07:49:19.023Z,90
2023-02-14T07:52:44.224Z,90
2023-02-14T07:56:09.429Z,90
2023-02-14T07:59:34.594Z,90
2023-02-14T08:02:59.840Z,90
2023-02-14T08:06:25.029Z,91
2023-02-14T08:09:50.262Z,91
2023-02-14T08:13:15.508Z,90
2023-02-14T08:16:40.676Z,90
2023-02-14T08:20:05.852Z,90
2023-02-14T08:23:31.048Z,91
2023-02-14T08:26:56.272Z,91
2023-02-14T08:30:21.524Z,91
2023-02-14T08:33:46.751Z,90
2023-02-14T08:37:11.979Z,90
2023-02-14T08:40:37.260Z,89
2023-02-14T08:44:02.420Z,89
2023-02-14T08:47:27.693Z,88
2023-02-14T08:50:52.858Z,88
2023-02-14T08:54:18.085Z,88
2023-02-14T08:57:43.312Z,88
2023-02-14T09:01:08.571Z,88
2023-02-14T09:04:33.839Z,88
2023-02-14T09:07:58.959Z,87
2023-02-14T09:11:24.209Z,87
2023-02-14T09:14:49.410Z,87
2023-02-14T09:18:14.643Z,86
2023-02-14T09:21:40.549Z,85
2023-02-14T09:25:05.744Z,85
2023-02-14T09:28:30.974Z,84
2023-02-14T09:31:56.237Z,84
2023-02-14T09:35:21.414Z,85
2023-02-14T09:38:46.663Z,85
2023-02-14T09:42:11.816Z,85
2023-02-14T09:45:37.068Z,85
2023-02-14T09:49:02.252Z,84
2023-02-14T09:52:27.426Z,83
2023-02-14T09:55:52.692Z,83
2023-02-14T09:59:17.835Z,83
2023-02-14T10:02:43.021Z,82
2023-02-14T10:06:08.221Z,82
2023-02-14T10:09:33.426Z,80
2023-02-14T10:12:58.726Z,80
2023-02-14T10:16:26.478Z,81
2023-02-14T10:19:49.193Z,80
2023-02-14T10:23:14.376Z,79
2023-02-14T10:26:39.581Z,78
2023-02-14T10:30:04.864Z,78
2023-02-14T10:33:30.081Z,78
2023-02-14T10:36:55.374Z,78
2023-02-14T10:40:20.563Z,81
2023-02-14T10:43:45.779Z,80
2023-02-14T10:47:11.010Z,81
2023-02-14T10:50:37.432Z,78
2023-02-14T10:54:02.645Z,79
2023-02-14T10:57:27.852Z,78
2023-02-14T11:00:53.180Z,82
2023-02-14T11:04:18.361Z,79
2023-02-14T11:07:43.543Z,79
2023-02-14T11:11:08.782Z,78
2023-02-14T11:14:33.978Z,78
2023-02-14T11:17:59.156Z,77
2023-02-14T11:21:24.452Z,79
2023-02-14T11:24:49.597Z,77
2023-02-14T11:28:14.791Z,77
2023-02-14T11:31:40.163Z,77
2023-02-14T11:35:05.258Z,76
2023-02-14T11:38:30.640Z,77
2023-02-14T11:41:57.441Z,76
2023-02-14T11:45:22.798Z,74
2023-02-14T11:48:49.112Z,73
2023-02-14T11:52:15.484Z,71
2023-02-14T11:55:40.939Z,72
2023-02-14T11:59:06.638Z,70
2023-02-14T12:02:32.736Z,70
2023-02-14T12:05:58.403Z,69
2023-02-14T12:09:30.670Z,70
2023-02-14T12:12:56.105Z,70
2023-02-14T12:16:21.347Z,71
2023-02-14T12:19:46.679Z,69
2023-02-14T12:23:12.021Z,69
2023-02-14T12:26:37.462Z,70
2023-02-14T12:30:02.935Z,69
2023-02-14T12:33:28.122Z,69
2023-02-14T12:36:53.478Z,68
2023-02-14T12:40:18.792Z,68
2023-02-14T12:43:44.096Z,69
2023-02-14T12:47:16.059Z,68
2023-02-14T12:50:41.401Z,68
2023-02-14T12:54:08.201Z,68
2023-02-14T12:57:33.558Z,67
2023-02-14T13:00:59.091Z,69
2023-02-14T13:04:24.190Z,68
2023-02-14T13:07:49.488Z,68
2023-02-14T13:11:14.821Z,69
2023-02-14T13:14:40.823Z,68
2023-02-14T13:18:06.388Z,67
2023-02-14T13:21:31.782Z,68
2023-02-14T13:24:57.112Z,67
2023-02-14T13:28:22.580Z,68
2023-02-14T13:31:48.101Z,66
2023-02-14T13:35:13.270Z,67
2023-02-14T13:38:38.644Z,67
2023-02-14T13:42:04.079Z,67
2023-02-14T13:45:30.410Z,68
2023-02-14T13:48:55.313Z,67
2023-02-14T13:52:21.251Z,68
2023-02-14T13:55:48.752Z,68
2023-02-14T13:59:11.968Z,67
2023-02-14T14:02:37.355Z,67
2023-02-14T14:06:03.305Z,68
2023-02-14T14:09:28.055Z,69
2023-02-14T14:12:53.470Z,68
2023-02-14T14:16:18.775Z,68
2023-02-14T14:19:45.067Z,69
2023-02-14T14:23:09.438Z,67
2023-02-14T14:26:34.861Z,68
2023-02-14T14:30:00.220Z,67
2023-02-14T15:05:46.925Z,69
2023-02-14T15:09:12.568Z,70
2023-02-14T15:12:38.085Z,70
2023-02-14T15:16:03.958Z,70
2023-02-14T15:19:29.008Z,69
2023-02-14T15:22:54.427Z,69
2023-02-14T15:26:19.759Z,71
2023-02-14T15:29:45.067Z,71
2023-02-14T15:33:10.376Z,71
2023-02-14T15:36:35.663Z,72
2023-02-14T15:40:00.977Z,73
2023-02-14T15:43:26.283Z,72
2023-02-14T15:46:51.575Z,72
2023-02-14T15:50:16.888Z,73
2023-02-14T15:53:42.173Z,72
2023-02-14T15:57:07.541Z,73
2023-02-14T16:00:32.822Z,73
2023-02-14T16:03:58.166Z,73
2023-02-14T16:07:23.463Z,74
2023-02-14T16:10:48.808Z,74
2023-02-14T16:14:14.019Z,76
2023-02-14T16:17:39.186Z,76
2023-02-14T16:21:04.387Z,77
2023-02-14T16:24:29.588Z,79
2023-02-14T16:27:54.804Z,78
2023-02-14T16:31:20.122Z,77
2023-02-14T16:34:45.261Z,79
2023-02-14T16:38:10.451Z,80
2023-02-14T16:41:35.659Z,79
2023-02-14T16:45:00.861Z,79
2023-02-14T16:48:26.094Z,79
2023-02-14T16:51:51.314Z,79
2023-02-14T16:55:16.563Z,81
2023-02-14T16:58:41.802Z,82
2023-02-14T17:02:07.029Z,81
2023-02-14T17:05:32.241Z,80
2023-02-14T17:08:57.398Z,80
2023-02-14T17:12:22.610Z,81
2023-02-14T17:15:47.936Z,81
2023-02-14T17:19:13.142Z,81
2023-02-14T17:22:38.384Z,79
2023-02-14T17:26:03.530Z,80
2023-02-14T17:29:28.739Z,81
2023-02-14T17:32:54.010Z,80
2023-02-14T17:36:19.234Z,82
2023-02-14T17:39:44.505Z,79
2023-02-14T17:43:09.696Z,81
2023-02-14T17:46:34.947Z,84
2023-02-14T17:50:00.166Z,83
2023-02-14T17:53:25.373Z,82
2023-02-14T17:56:50.568Z,83
2023-02-14T18:00:15.757Z,81
2023-02-14T18:03:41.083Z,82
2023-02-14T18:07:06.300Z,81
2023-02-14T18:10:37.337Z,79
2023-02-14T18:14:02.614Z,83
2023-02-14T18:17:27.797Z,84
2023-02-14T18:20:53.080Z,82
2023-02-14T18:24:18.333Z,80
2023-02-14T18:27:43.569Z,80
2023-02-14T18:31:09.056Z,81
2023-02-14T18:34:34.177Z,83
2023-02-14T18:37:59.406Z,84
2023-02-14T18:41:24.651Z,84
2023-02-14T18:44:49.882Z,83
2023-02-14T18:48:15.222Z,81
2023-02-14T18:51:40.384Z,82
2023-02-14T18:55:05.615Z,80
2023-02-14T18:58:30.869Z,80
2023-02-14T19:01:56.210Z,82
2023-02-14T19:05:21.454Z,83
2023-02-14T19:08:46.696Z,84
2023-02-14T19:12:11.934Z,82
2023-02-14T19:15:37.200Z,83
2023-02-14T19:19:02.846Z,83
2023-02-14T19:22:27.816Z,82
2023-02-14T19:25:53.453Z,83
2023-02-14T19:29:18.311Z,84
2023-02-14T19:32:43.588Z,82
2023-02-14T19:36:08.882Z,81
2023-02-14T19:39:34.143Z,80
2023-02-14T19:42:59.375Z,83
2023-02-14T19:46:24.628Z,82
2023-02-14T19:49:49.927Z,81
2023-02-14T19:53:15.157Z,82
2023-02-14T19:56:40.444Z,85
2023-02-14T20:00:05.704Z,83
2023-02-14T20:03:30.978Z,82
2023-02-14T20:06:56.221Z,82
2023-02-14T20:10:21.478Z,81
2023-02-14T20:13:46.761Z,82
2023-02-14T20:17:11.996Z,83
2023-02-14T20:20:37.232Z,82
2023-02-14T20:24:02.478Z,82
2023-02-14T20:27:27.754Z,84
2023-02-14T20:30:53.148Z,85
2023-02-14T20:34:18.741Z,85
2023-02-14T20:37:43.915Z,84
2023-02-14T20:41:09.175Z,84
2023-02-14T20:44:34.389Z,86
2023-02-14T20:47:59.574Z,86
2023-02-14T20:51:24.730Z,85
2023-02-14T20:54:49.895Z,85
2023-02-14T20:58:15.115Z,86
2023-02-14T21:01:40.293Z,86
2023-02-14T21:05:05.461Z,87
2023-02-14T21:08:30.595Z,87
2023-02-14T21:11:55.764Z,87
2023-02-14T21:15:20.929Z,86
2023-02-14T21:18:46.102Z,87
2023-02-14T21:22:11.294Z,87
2023-02-14T21:25:36.450Z,87
2023-02-14T21:29:01.638Z,86
2023-02-14T21:32:26.822Z,86
2023-02-14T21:35:51.999Z,86
2023-02-14T21:39:17.210Z,85
2023-02-14T21:42:42.342Z,86
2023-02-14T21:46:07.519Z,85
2023-02-14T21:49:32.655Z,83
2023-02-14T21:52:57.800Z,84
2023-02-14T21:56:23.063Z,84
2023-02-14T21:59:48.207Z,82
2023-02-14T22:03:13.369Z,81
2023-02-14T22:06:38.533Z,81
2023-02-14T22:10:03.705Z,82
2023-02-14T22:13:28.890Z,85
2023-02-14T22:16:54.046Z,87
2023-02-14T22:20:19.212Z,87
2023-02-14T22:23:44.380Z,87
2023-02-14T22:27:09.530Z,86
2023-02-14T22:30:34.727Z,86
2023-02-14T22:33:59.846Z,84
2023-02-14T22:37:25.010Z,82
2023-02-14T22:40:50.190Z,81
2023-02-14T22:44:15.340Z,81
2023-02-14T22:47:40.543Z,81
2023-02-14T22:51:05.686Z,79
2023-02-14T22:54:30.844Z,82
2023-02-14T22:57:56.032Z,86
2023-02-14T23:01:21.216Z,86
2023-02-14T23:04:46.401Z,86
2023-02-14T23:08:11.520Z,85
2023-02-14T23:11:38.450Z,84
2023-02-14T23:15:03.621Z,84
2023-02-14T23:18:28.805Z,83
2023-02-14T23:21:53.984Z,82
2023-02-14T23:25:19.179Z,82
2023-02-14T23:28:44.385Z,82
2023-02-14T23:32:09.551Z,82
2023-02-14T23:35:34.700Z,82
2023-02-14T23:39:00.025Z,82
2023-02-14T23:42:25.076Z,82
2023-02-14T23:45:50.265Z,82
2023-02-14T23:49:15.408Z,82
2023-02-14T23:52:40.575Z,82
2023-02-14T23:56:05.765Z,82
2023-02-14T23:59:30.944Z,82
